Time;durP1;ratioP1;P1;durP2;ratioP2;P2;SDS_P1;SDS_P2;PMS_P1;PMS_P2;Temp;Humidity;BMP_temperature;BMP_pressure;BME280_temperature;BME280_humidity;BME280_pressure;Samples;Min_cycle;Max_cycle;Signal;HPM_P1;HPM_P2
2023/01/05 00:01:56;;;;;;;34.17;7.43;;;9.10;99.90;;;;;;5020148;28;20091;-35
2023/01/05 00:04:22;;;;;;;47.28;9.70;;;9.10;99.90;;;;;;5037243;28;20060;-35
2023/01/05 00:06:48;;;;;;;37.30;6.18;;;9.10;99.90;;;;;;5035971;28;20128;-39
2023/01/05 00:09:16;;;;;;;48.72;9.10;;;9.10;99.90;;;;;;5037099;28;20049;-37
2023/01/05 00:23:01;;;;;;;36.38;6.53;;;9.10;99.90;;;;;;5008338;28;20115;-38
2023/01/05 00:25:29;;;;;;;35.13;7.05;;;9.00;99.90;;;;;;5037400;28;20092;-41
2023/01/05 00:27:57;;;;;;;30.50;5.88;;;9.00;99.90;;;;;;5036748;28;20376;-41
2023/01/05 00:30:25;;;;;;;39.40;7.15;;;9.00;99.90;;;;;;5036775;28;20060;-37
2023/01/05 00:32:51;;;;;;;25.38;5.07;;;9.00;99.90;;;;;;5037493;28;20072;-37
2023/01/05 00:35:18;;;;;;;37.33;7.18;;;9.10;99.90;;;;;;5037233;28;20459;-37
2023/01/05 00:37:44;;;;;;;38.25;6.78;;;9.00;99.90;;;;;;5036778;28;20042;-40
2023/01/05 00:40:12;;;;;;;35.92;6.95;;;9.00;99.90;;;;;;5019118;28;20053;-39
2023/01/05 00:42:38;;;;;;;37.55;7.50;;;9.00;99.90;;;;;;5018581;28;20080;-38
2023/01/05 00:45:07;;;;;;;43.55;8.57;;;9.00;99.90;;;;;;5036517;28;20041;-34
2023/01/05 00:47:32;;;;;;;35.70;6.63;;;9.10;99.90;;;;;;5036385;28;20085;-34
2023/01/05 00:49:58;;;;;;;38.13;7.32;;;9.10;99.90;;;;;;5036406;28;20077;-34
2023/01/05 00:52:24;;;;;;;36.70;7.57;;;9.10;99.90;;;;;;5036359;28;20501;-34
2023/01/05 00:54:49;;;;;;;41.75;6.45;;;9.10;99.90;;;;;;5036293;28;20053;-35
2023/01/05 00:57:15;;;;;;;38.88;5.63;;;9.10;99.90;;;;;;5036123;28;20130;-36
2023/01/05 00:59:41;;;;;;;41.45;7.85;;;9.10;99.90;;;;;;5036320;28;20115;-36
2023/01/05 01:02:08;;;;;;;43.13;6.88;;;9.00;99.90;;;;;;5036373;28;20080;-35
2023/01/05 01:04:34;;;;;;;42.53;7.95;;;9.00;99.90;;;;;;5018415;28;20132;-33
2023/01/05 01:07:00;;;;;;;33.92;5.75;;;9.10;99.90;;;;;;5036367;28;20049;-34
2023/01/05 01:09:26;;;;;;;38.00;7.45;;;9.00;99.90;;;;;;5036007;28;20049;-34
2023/01/05 01:11:52;;;;;;;38.58;6.90;;;9.10;99.90;;;;;;5036518;28;20099;-33
2023/01/05 01:14:18;;;;;;;27.30;6.28;;;9.20;99.90;;;;;;5035928;28;20045;-37
2023/01/05 01:16:44;;;;;;;36.67;7.00;;;9.20;99.90;;;;;;5035866;28;20049;-37
2023/01/05 01:19:15;;;;;;;37.42;6.72;;;9.30;99.90;;;;;;5036374;28;20084;-37
2023/01/05 01:21:42;;;;;;;32.97;6.90;;;9.30;99.90;;;;;;5018954;28;20496;-39
2023/01/05 01:24:13;;;;;;;32.83;5.20;;;9.20;99.90;;;;;;5035444;28;20561;-39
2023/01/05 01:26:39;;;;;;;36.03;6.50;;;9.10;99.90;;;;;;5017985;28;20053;-38
2023/01/05 01:29:04;;;;;;;46.28;8.48;;;9.20;99.90;;;;;;5018213;28;20136;-40
2023/01/05 01:31:30;;;;;;;33.65;6.95;;;9.20;99.90;;;;;;5036496;28;20045;-40
2023/01/05 01:33:56;;;;;;;33.63;5.40;;;9.20;99.90;;;;;;5036133;28;20049;-39
2023/01/05 01:36:22;;;;;;;30.33;6.53;;;9.30;99.90;;;;;;5017958;28;20052;-41
2023/01/05 01:38:47;;;;;;;33.88;6.70;;;9.30;99.90;;;;;;5017761;28;20136;-38
2023/01/05 01:41:13;;;;;;;26.40;5.78;;;9.40;99.90;;;;;;5018823;28;20049;-41
2023/01/05 01:43:55;;;;;;;31.05;6.63;;;9.40;99.90;;;;;;5035987;28;20054;-41
2023/01/05 01:46:23;;;;;;;37.53;6.60;;;9.40;99.90;;;;;;5035463;28;20049;-40
2023/01/05 01:48:56;;;;;;;33.78;6.57;;;9.40;99.90;;;;;;5018362;28;20463;-41
2023/01/05 01:51:27;;;;;;;28.23;5.18;;;9.40;99.90;;;;;;5034989;28;20484;-41
2023/01/05 01:53:56;;;;;;;34.72;5.95;;;9.40;96.30;;;;;;5018582;28;20103;-40
2023/01/05 01:56:26;;;;;;;31.38;5.97;;;9.30;99.90;;;;;;5035133;28;20130;-39
2023/01/05 01:58:52;;;;;;;29.75;5.72;;;9.40;99.90;;;;;;5035558;28;20140;-42
2023/01/05 02:01:18;;;;;;;33.83;5.65;;;9.40;1.00;;;;;;5035048;28;20049;-41
2023/01/05 02:03:44;;;;;;;31.33;6.60;;;9.40;1.00;;;;;;5035535;28;20049;-41
2023/01/05 02:06:11;;;;;;;30.08;6.75;;;9.40;20.40;;;;;;5034940;28;20050;-42
2023/01/05 02:08:36;;;;;;;36.17;7.22;;;9.50;1.00;;;;;;5034852;28;20045;-41
2023/01/05 02:11:30;;;;;;;32.03;6.55;;;9.40;1.00;;;;;;5034036;28;20059;-43
2023/01/05 02:14:24;;;;;;;26.83;5.55;;;9.50;1.00;;;;;;5017149;28;20499;-41
2023/01/05 02:16:59;;;;;;;26.90;6.15;;;9.50;1.00;;;;;;5034707;28;20063;-41
2023/01/05 02:19:52;;;;;;;28.95;5.97;;;9.40;1.00;;;;;;5034807;28;20056;-41
2023/01/05 02:22:17;;;;;;;35.63;6.65;;;9.40;1.00;;;;;;5034833;28;20049;-40
2023/01/05 02:24:58;;;;;;;37.17;7.30;;;9.20;99.90;;;;;;5034835;28;20380;-41
2023/01/05 02:27:48;;;;;;;30.23;6.30;;;9.30;98.10;;;;;;5034599;28;20506;-41
2023/01/05 02:30:47;;;;;;;31.67;6.78;;;9.20;99.90;;;;;;5034812;28;20041;-40
2023/01/05 02:33:53;;;;;;;31.98;5.63;;;9.20;99.90;;;;;;5035319;28;20076;-42
2023/01/05 02:36:48;;;;;;;32.22;6.57;;;9.30;90.20;;;;;;5035009;28;20081;-41
2023/01/05 02:39:18;;;;;;;32.42;5.78;;;9.30;99.90;;;;;;5001350;28;20053;-42
2023/01/05 02:41:58;;;;;;;36.72;6.15;;;9.30;37.70;;;;;;5034232;28;20514;-40
2023/01/05 02:44:30;;;;;;;29.23;5.90;;;9.40;1.00;;;;;;5034331;28;20049;-41
2023/01/05 02:47:04;;;;;;;32.38;7.03;;;9.40;1.00;;;;;;5017492;28;20107;-42
2023/01/05 02:49:38;;;;;;;40.00;5.72;;;9.40;43.70;;;;;;5034164;28;20083;-42
2023/01/05 02:52:06;;;;;;;35.50;7.13;;;9.40;1.00;;;;;;5034704;28;20099;-41
2023/01/05 02:54:51;;;;;;;29.75;6.03;;;9.40;91.90;;;;;;5034058;28;20049;-41
2023/01/05 02:57:45;;;;;;;34.85;7.20;;;9.40;1.00;;;;;;5034230;28;20533;-41
2023/01/05 03:00:15;;;;;;;31.33;6.10;;;9.40;13.10;;;;;;5016561;28;20041;-38
2023/01/05 03:02:43;;;;;;;35.88;6.63;;;9.40;1.00;;;;;;5033942;28;20053;-41
2023/01/05 03:05:15;;;;;;;34.55;6.43;;;9.40;31.10;;;;;;5034197;28;20056;-41
2023/01/05 03:07:42;;;;;;;50.28;7.95;;;9.30;1.00;;;;;;5033908;28;20041;-41
2023/01/05 03:15:46;;;;;;;36.83;7.45;;;9.30;58.30;;;;;;5016691;28;20061;-41
2023/01/05 03:18:18;;;;;;;35.03;7.43;;;9.40;74.60;;;;;;5033761;28;20052;-40
2023/01/05 03:20:49;;;;;;;35.30;6.35;;;9.30;1.00;;;;;;5016080;28;20056;-41
2023/01/05 03:38:28;;;;;;;32.03;7.28;;;9.40;99.90;;;;;;5033201;28;20488;-42
2023/01/05 03:40:58;;;;;;;39.08;6.78;;;9.50;1.00;;;;;;5033906;28;20135;-41
2023/01/05 03:43:24;;;;;;;27.70;6.05;;;9.50;1.00;;;;;;5016053;28;20045;-39
2023/01/05 03:45:56;;;;;;;33.45;6.57;;;9.50;1.00;;;;;;5033449;28;20053;-41
2023/01/05 03:48:23;;;;;;;34.17;7.95;;;9.40;90.30;;;;;;5033698;28;20045;-41
2023/01/05 03:50:48;;;;;;;36.65;7.32;;;9.40;95.30;;;;;;5033387;28;20480;-40
2023/01/05 03:53:14;;;;;;;34.95;6.25;;;9.40;99.90;;;;;;5033386;28;20048;-41
2023/01/05 03:55:40;;;;;;;30.95;7.25;;;9.40;99.90;;;;;;5033338;28;20542;-41
2023/01/05 03:58:06;;;;;;;30.58;6.00;;;9.40;99.90;;;;;;5033257;28;20042;-41
2023/01/05 04:00:31;;;;;;;34.85;6.30;;;9.40;99.90;;;;;;5033294;28;20037;-40
2023/01/05 04:02:57;;;;;;;32.38;5.65;;;9.40;99.90;;;;;;5033254;28;20056;-40
2023/01/05 04:05:23;;;;;;;36.15;6.88;;;9.40;99.90;;;;;;5033314;28;20072;-42
2023/01/05 04:07:49;;;;;;;32.35;6.07;;;9.40;99.90;;;;;;5033297;28;20048;-37
2023/01/05 04:10:15;;;;;;;33.83;5.35;;;9.50;99.90;;;;;;5034014;28;20100;-40
2023/01/05 04:12:40;;;;;;;29.25;5.13;;;9.40;99.90;;;;;;5033231;28;20091;-40
2023/01/05 04:15:07;;;;;;;30.83;6.25;;;9.40;99.90;;;;;;5033150;28;20046;-39
2023/01/05 04:17:32;;;;;;;38.47;7.45;;;9.50;26.30;;;;;;5033078;28;20057;-40
2023/01/05 04:19:58;;;;;;;33.85;6.55;;;9.30;1.00;;;;;;4999404;28;20060;-41
2023/01/05 04:22:24;;;;;;;32.53;6.40;;;9.50;1.00;;;;;;5015645;28;20049;-41
2023/01/05 04:24:49;;;;;;;33.35;5.57;;;9.50;1.00;;;;;;5032885;28;20144;-39
2023/01/05 04:27:15;;;;;;;31.13;6.57;;;9.50;16.20;;;;;;5015581;28;20049;-38
2023/01/05 04:29:41;;;;;;;37.33;6.07;;;9.50;1.00;;;;;;5015387;28;20538;-38
2023/01/05 04:32:07;;;;;;;35.08;6.07;;;9.50;1.00;;;;;;5032997;28;20048;-39
2023/01/05 04:34:32;;;;;;;28.13;5.30;;;9.50;1.00;;;;;;5035763;28;20057;-41
2023/01/05 04:36:58;;;;;;;35.90;7.18;;;9.50;99.90;;;;;;5002817;28;20055;-39
2023/01/05 04:39:24;;;;;;;28.80;7.22;;;9.50;1.00;;;;;;5036882;28;20052;-40
2023/01/05 04:41:49;;;;;;;29.00;6.03;;;9.50;1.00;;;;;;5037149;28;20081;-40
2023/01/05 04:44:15;;;;;;;32.08;5.88;;;9.60;99.90;;;;;;5019428;28;20475;-39
2023/01/05 04:46:41;;;;;;;31.63;7.95;;;9.60;1.00;;;;;;5037317;28;20128;-40
2023/01/05 04:49:08;;;;;;;30.50;7.00;;;9.60;1.00;;;;;;5019721;28;20049;-39
2023/01/05 04:51:34;;;;;;;23.00;5.35;;;9.50;1.00;;;;;;5036656;28;20045;-40
2023/01/05 04:54:00;;;;;;;34.47;5.55;;;9.50;1.00;;;;;;5037155;28;20087;-38
2023/01/05 04:56:25;;;;;;;41.10;6.88;;;9.50;1.00;;;;;;5036260;28;20060;-38
2023/01/05 04:58:51;;;;;;;32.67;5.80;;;9.50;1.00;;;;;;5019360;28;20048;-35
2023/01/05 05:01:17;;;;;;;29.35;5.32;;;9.50;1.00;;;;;;5036212;28;20041;-38
2023/01/05 05:03:42;;;;;;;28.55;6.50;;;9.50;1.00;;;;;;5036162;28;20053;-40
2023/01/05 05:06:08;;;;;;;33.55;5.47;;;9.40;25.00;;;;;;5036140;28;20041;-39
2023/01/05 05:08:33;;;;;;;33.50;6.22;;;9.40;1.00;;;;;;5018415;28;20048;-38
2023/01/05 05:10:59;;;;;;;27.27;5.63;;;9.40;1.00;;;;;;5036317;28;20045;-40
2023/01/05 05:13:25;;;;;;;32.17;6.10;;;9.40;1.00;;;;;;5018477;28;20076;-35
2023/01/05 05:15:51;;;;;;;31.83;5.28;;;9.40;27.90;;;;;;5035928;28;20053;-40
2023/01/05 05:18:16;;;;;;;34.90;6.40;;;9.40;1.00;;;;;;5018098;28;20038;-40
2023/01/05 05:20:47;;;;;;;26.92;5.18;;;9.40;1.00;;;;;;5035850;28;20063;-35
2023/01/05 05:23:13;;;;;;;31.52;6.18;;;9.40;1.00;;;;;;5035432;28;20053;-39
2023/01/05 05:25:39;;;;;;;35.05;6.72;;;9.50;1.00;;;;;;5028347;28;20084;-39
2023/01/05 05:28:05;;;;;;;32.70;5.28;;;9.50;1.00;;;;;;5035711;28;20049;-38
2023/01/05 05:30:30;;;;;;;31.92;5.70;;;9.50;1.00;;;;;;5035665;28;20046;-39
2023/01/05 05:32:56;;;;;;;34.65;5.97;;;9.50;1.00;;;;;;5035622;28;20091;-38
2023/01/05 05:35:22;;;;;;;35.40;6.65;;;9.40;99.90;;;;;;5034657;28;20049;-38
2023/01/05 05:37:47;;;;;;;38.40;6.43;;;9.40;99.90;;;;;;5035038;28;20048;-40
2023/01/05 05:40:13;;;;;;;34.58;5.95;;;9.40;99.90;;;;;;5034470;28;20041;-40
2023/01/05 05:42:39;;;;;;;35.75;6.65;;;9.50;26.30;;;;;;5035512;28;20095;-38
2023/01/05 05:45:05;;;;;;;35.53;7.00;;;9.50;91.70;;;;;;5016690;28;20096;-39
2023/01/05 05:47:31;;;;;;;29.55;5.53;;;9.50;81.30;;;;;;5035958;28;20053;-38
2023/01/05 05:49:56;;;;;;;31.15;5.80;;;9.50;99.90;;;;;;5035248;28;20050;-39
2023/01/05 05:52:22;;;;;;;37.55;6.13;;;9.40;10.60;;;;;;5034107;28;20046;-38
2023/01/05 05:54:48;;;;;;;28.10;4.97;;;9.50;99.90;;;;;;5035275;28;20089;-38
2023/01/05 05:57:14;;;;;;;40.38;7.32;;;9.40;69.90;;;;;;5033922;28;20522;-38
2023/01/05 05:59:39;;;;;;;31.92;6.18;;;9.40;99.90;;;;;;5035143;28;20041;-37
2023/01/05 06:02:05;;;;;;;30.35;5.40;;;9.40;99.90;;;;;;5033925;28;20048;-39
2023/01/05 06:04:31;;;;;;;25.58;5.65;;;9.40;99.90;;;;;;5035041;28;20049;-38
2023/01/05 06:06:56;;;;;;;32.95;5.78;;;9.40;99.90;;;;;;5033707;28;20124;-39
2023/01/05 06:09:23;;;;;;;29.92;5.88;;;9.40;99.90;;;;;;5034619;28;20118;-38
2023/01/05 06:11:49;;;;;;;28.48;5.32;;;9.40;95.00;;;;;;5035416;28;20060;-40
2023/01/05 06:14:15;;;;;;;28.75;4.97;;;9.30;99.90;;;;;;5035151;28;20053;-38
2023/01/05 06:16:40;;;;;;;29.73;5.28;;;9.30;99.90;;;;;;5034782;28;20052;-34
2023/01/05 06:19:08;;;;;;;30.08;4.85;;;9.30;99.90;;;;;;5035220;28;20455;-33
2023/01/05 06:21:33;;;;;;;34.65;6.47;;;9.10;99.90;;;;;;5034612;28;20049;-33
2023/01/05 06:23:59;;;;;;;30.55;5.20;;;9.00;99.90;;;;;;5034163;28;20050;-33
2023/01/05 06:26:25;;;;;;;34.33;5.75;;;9.00;99.90;;;;;;5016520;28;20049;-33
2023/01/05 06:28:51;;;;;;;36.08;7.50;;;8.90;99.90;;;;;;5016962;28;20038;-33
2023/01/05 06:31:16;;;;;;;44.28;6.72;;;9.00;99.90;;;;;;5034545;28;20080;-33
2023/01/05 06:33:42;;;;;;;35.03;6.40;;;9.00;99.90;;;;;;5017086;28;20187;-34
2023/01/05 06:36:08;;;;;;;27.70;4.78;;;9.00;99.90;;;;;;5016757;28;20115;-33
2023/01/05 06:38:34;;;;;;;43.10;7.00;;;8.90;99.90;;;;;;5016775;28;20037;-33
2023/01/05 06:40:59;;;;;;;42.63;7.03;;;8.90;99.90;;;;;;5034328;28;20423;-33
2023/01/05 06:43:25;;;;;;;33.75;6.40;;;8.90;99.90;;;;;;5016853;28;20046;-34
2023/01/05 06:45:51;;;;;;;44.10;7.40;;;8.90;99.90;;;;;;5034243;28;20124;-33
2023/01/05 06:48:17;;;;;;;38.72;6.35;;;8.90;99.90;;;;;;5034205;28;20049;-33
2023/01/05 06:50:43;;;;;;;39.00;5.90;;;8.90;99.90;;;;;;5034122;28;20099;-33
2023/01/05 06:53:09;;;;;;;37.53;6.78;;;8.90;99.90;;;;;;5016671;28;20124;-33
2023/01/05 06:55:34;;;;;;;37.75;6.68;;;8.90;99.90;;;;;;5016356;28;20137;-34
2023/01/05 06:58:00;;;;;;;40.80;6.82;;;8.90;99.90;;;;;;5033731;28;20045;-34
2023/01/05 07:00:26;;;;;;;42.97;6.43;;;8.90;99.90;;;;;;5034059;28;20053;-34
2023/01/05 07:02:52;;;;;;;36.28;5.88;;;8.90;99.90;;;;;;5033985;28;20048;-33
2023/01/05 07:05:18;;;;;;;34.78;5.50;;;9.00;99.90;;;;;;5034003;28;20120;-33
2023/01/05 07:07:43;;;;;;;34.17;5.50;;;9.00;99.90;;;;;;5033922;28;20518;-34
2023/01/05 07:10:09;;;;;;;35.58;6.88;;;9.00;99.90;;;;;;5033864;28;20053;-33
2023/01/05 07:12:35;;;;;;;29.23;4.93;;;9.00;99.90;;;;;;5033565;28;20045;-34
2023/01/05 07:15:01;;;;;;;33.35;5.55;;;8.90;99.90;;;;;;5016337;28;20041;-34
2023/01/05 07:17:27;;;;;;;40.58;5.25;;;9.00;99.90;;;;;;5033667;28;20046;-36
2023/01/05 07:19:53;;;;;;;29.38;5.10;;;8.90;99.90;;;;;;4999776;28;20054;-33
2023/01/05 07:22:18;;;;;;;38.08;5.97;;;8.90;99.90;;;;;;5033627;28;20044;-34
2023/01/05 07:24:44;;;;;;;43.08;5.68;;;8.80;99.90;;;;;;5033310;28;20061;-33
2023/01/05 07:27:10;;;;;;;33.38;5.72;;;8.70;99.90;;;;;;5033899;28;20056;-35
2023/01/05 07:29:36;;;;;;;35.60;5.97;;;8.60;99.90;;;;;;5016219;28;20130;-37
2023/01/05 07:32:02;;;;;;;39.65;6.28;;;8.70;99.90;;;;;;5033606;28;20571;-35
2023/01/05 07:34:27;;;;;;;36.38;6.45;;;8.80;99.90;;;;;;5034356;28;20049;-34
2023/01/05 07:36:53;;;;;;;41.08;6.28;;;8.80;99.90;;;;;;4999439;28;20434;-34
2023/01/05 07:39:19;;;;;;;35.45;7.25;;;8.90;99.90;;;;;;5033589;28;20132;-35
2023/01/05 07:41:44;;;;;;;29.70;5.05;;;8.90;99.90;;;;;;5016166;28;20049;-35
2023/01/05 07:44:10;;;;;;;28.20;4.70;;;8.90;99.90;;;;;;5033349;28;20085;-35
2023/01/05 07:46:36;;;;;;;37.50;5.95;;;8.90;99.90;;;;;;5033636;28;20060;-34
2023/01/05 07:49:02;;;;;;;33.05;4.70;;;8.90;99.90;;;;;;5033381;28;20545;-35
2023/01/05 07:51:28;;;;;;;31.90;5.40;;;8.90;99.90;;;;;;5015834;28;20399;-37
2023/01/05 07:53:55;;;;;;;33.05;5.45;;;9.00;99.90;;;;;;5033219;28;20041;-38
2023/01/05 07:56:21;;;;;;;24.95;4.40;;;9.00;99.90;;;;;;5033366;28;20116;-34
2023/01/05 07:58:46;;;;;;;36.53;6.15;;;8.90;99.90;;;;;;5033206;28;20040;-35
2023/01/05 08:01:14;;;;;;;32.65;6.35;;;8.90;99.90;;;;;;5016162;28;20045;-36
2023/01/05 08:03:40;;;;;;;25.02;3.83;;;9.00;99.90;;;;;;5034104;28;20045;-37
2023/01/05 08:06:11;;;;;;;29.33;5.22;;;8.90;99.90;;;;;;5033582;28;20191;-35
2023/01/05 08:08:38;;;;;;;27.70;5.40;;;9.00;99.90;;;;;;5034494;28;20075;-34
2023/01/05 08:11:05;;;;;;;27.80;4.63;;;9.00;99.90;;;;;;5037097;28;20045;-34
2023/01/05 08:16:15;;;;;;;37.50;5.53;;;9.00;99.90;;;;;;5037123;28;20053;-34
2023/01/05 08:18:41;;;;;;;29.75;5.35;;;9.00;99.90;;;;;;5036961;28;20048;-35
2023/01/05 08:21:08;;;;;;;34.55;4.95;;;9.00;99.90;;;;;;5036977;28;20053;-35
2023/01/05 08:23:35;;;;;;;36.92;6.95;;;9.00;99.90;;;;;;5036790;28;20084;-36
2023/01/05 08:26:16;;;;;;;35.90;5.30;;;9.10;99.90;;;;;;5032629;28;20450;-37
2023/01/05 08:28:42;;;;;;;27.55;4.85;;;9.10;99.90;;;;;;5036906;28;20050;-34
2023/01/05 08:31:15;;;;;;;33.00;5.65;;;9.10;99.90;;;;;;5036819;28;20053;-36
2023/01/05 08:33:41;;;;;;;27.65;4.95;;;9.10;99.90;;;;;;5036832;28;20492;-34
2023/01/05 08:36:09;;;;;;;30.85;5.50;;;9.10;99.90;;;;;;5036723;28;20087;-34
2023/01/05 08:38:35;;;;;;;33.50;5.32;;;9.10;99.90;;;;;;5036557;28;20514;-35
2023/01/05 08:41:01;;;;;;;39.88;5.72;;;9.10;99.90;;;;;;5036664;28;20061;-36
2023/01/05 08:43:27;;;;;;;34.17;5.65;;;9.10;99.90;;;;;;5035407;28;20392;-36
2023/01/05 08:45:53;;;;;;;30.52;4.80;;;9.10;99.90;;;;;;5036461;28;20053;-34
2023/01/05 08:48:19;;;;;;;29.25;6.60;;;9.10;99.90;;;;;;5036510;28;20042;-34
2023/01/05 08:50:44;;;;;;;35.67;5.47;;;9.10;99.90;;;;;;5019327;28;20446;-34
2023/01/05 08:53:10;;;;;;;31.90;5.55;;;9.10;99.90;;;;;;5036397;28;20048;-36
2023/01/05 08:55:36;;;;;;;35.97;6.95;;;9.10;99.90;;;;;;5036055;28;20450;-35
2023/01/05 08:58:05;;;;;;;35.42;5.63;;;9.10;99.90;;;;;;5036222;28;20037;-37
2023/01/05 09:00:31;;;;;;;39.88;7.22;;;9.10;99.90;;;;;;5036222;28;20068;-35
2023/01/05 09:02:57;;;;;;;33.25;6.45;;;9.10;99.90;;;;;;5036239;28;20059;-34
2023/01/05 09:05:23;;;;;;;35.58;6.13;;;9.10;99.90;;;;;;5035196;28;20539;-34
2023/01/05 09:07:48;;;;;;;39.38;5.78;;;9.00;99.90;;;;;;5036156;28;20088;-34
2023/01/05 09:10:14;;;;;;;43.60;6.72;;;9.00;99.90;;;;;;5036069;28;20045;-34
2023/01/05 09:12:40;;;;;;;29.67;5.93;;;8.90;99.90;;;;;;5036123;28;20049;-34
2023/01/05 09:15:06;;;;;;;27.83;4.60;;;8.90;99.90;;;;;;5036222;28;20056;-35
2023/01/05 09:17:34;;;;;;;23.73;2.17;;;8.90;99.90;;;;;;5035717;28;20058;-35
2023/01/05 09:20:02;;;;;;;19.52;2.25;;;8.80;99.90;;;;;;5034616;28;20042;-34
2023/01/05 09:22:30;;;;;;;21.90;3.38;;;8.80;99.90;;;;;;5036297;28;20050;-35
2023/01/05 09:24:55;;;;;;;18.45;2.42;;;8.90;99.90;;;;;;5035495;28;20054;-35
2023/01/05 09:27:21;;;;;;;17.10;2.35;;;8.90;99.90;;;;;;5018000;28;20499;-34
2023/01/05 09:29:47;;;;;;;25.38;3.33;;;8.90;99.90;;;;;;5018323;28;20049;-35
2023/01/05 09:32:12;;;;;;;17.77;3.33;;;9.00;99.90;;;;;;5018233;28;20056;-34
2023/01/05 09:34:38;;;;;;;30.15;4.68;;;9.00;99.90;;;;;;5035575;28;20060;-34
2023/01/05 09:37:04;;;;;;;22.13;3.70;;;9.00;99.90;;;;;;5035432;28;20045;-35
2023/01/05 09:39:30;;;;;;;28.13;5.50;;;9.10;99.90;;;;;;5035494;28;20132;-34
2023/01/05 09:42:02;;;;;;;24.60;3.80;;;9.10;99.90;;;;;;5018016;28;20045;-36
2023/01/05 09:44:28;;;;;;;26.67;4.33;;;9.10;99.90;;;;;;5018135;28;20041;-35
2023/01/05 09:46:58;;;;;;;26.75;4.40;;;9.10;99.90;;;;;;5035364;28;20529;-35
2023/01/05 09:49:26;;;;;;;20.80;3.55;;;9.10;99.90;;;;;;5035951;28;20040;-36
2023/01/05 09:52:00;;;;;;;13.15;2.83;;;9.10;99.90;;;;;;5017716;28;20049;-34
2023/01/05 09:54:31;;;;;;;26.23;4.25;;;9.00;94.30;;;;;;5017654;28;20049;-36
2023/01/05 09:56:58;;;;;;;22.08;4.00;;;9.00;99.90;;;;;;5017765;28;20064;-35
2023/01/05 09:59:32;;;;;;;26.50;4.13;;;9.10;99.90;;;;;;5035041;28;20063;-35
2023/01/05 10:02:01;;;;;;;31.73;5.25;;;9.10;99.90;;;;;;5035103;28;20053;-34
2023/01/05 10:04:30;;;;;;;23.77;3.80;;;9.10;99.90;;;;;;5035915;28;20060;-35
2023/01/05 10:07:02;;;;;;;29.25;3.97;;;9.20;99.90;;;;;;5035474;28;20053;-34
2023/01/05 10:09:32;;;;;;;33.40;4.50;;;9.20;99.90;;;;;;5034987;28;20046;-34
2023/01/05 10:15:18;;;;;;;18.05;3.47;;;9.20;99.90;;;;;;5015883;28;20054;-35
2023/01/05 10:17:44;;;;;;;27.73;3.60;;;9.20;99.90;;;;;;4981429;28;20447;-34
2023/01/05 10:20:44;;;;;;;26.27;3.60;;;9.20;99.90;;;;;;5014666;28;20497;-34
2023/01/05 10:23:46;;;;;;;21.80;3.28;;;9.20;72.70;;;;;;4965415;28;20137;-34
2023/01/05 10:26:23;;;;;;;24.40;3.45;;;9.30;99.90;;;;;;5015284;28;20058;-34
2023/01/05 10:29:04;;;;;;;16.15;2.42;;;9.30;1.00;;;;;;5015661;28;20054;-36
2023/01/05 10:31:46;;;;;;;13.18;1.95;;;9.40;99.90;;;;;;5014087;28;20046;-34
2023/01/05 10:34:55;;;;;;;11.05;1.83;;;9.40;99.90;;;;;;4997716;28;20049;-35
2023/01/05 10:37:29;;;;;;;10.55;1.70;;;9.40;99.90;;;;;;4993779;28;20057;-35
2023/01/05 10:39:59;;;;;;;10.73;1.45;;;9.50;99.90;;;;;;5014631;28;20050;-35
2023/01/05 10:42:44;;;;;;;11.85;2.33;;;9.50;1.00;;;;;;5015178;28;20046;-34
2023/01/05 10:45:16;;;;;;;16.42;2.00;;;9.50;99.90;;;;;;4997840;28;20099;-35
2023/01/05 10:47:43;;;;;;;17.85;2.60;;;9.60;99.90;;;;;;5014524;28;20051;-34
2023/01/05 10:50:39;;;;;;;19.98;3.58;;;9.70;99.90;;;;;;5014442;28;20050;-34
2023/01/05 10:53:13;;;;;;;17.42;2.45;;;9.70;99.90;;;;;;5014995;28;20141;-35
2023/01/05 10:55:50;;;;;;;13.38;2.97;;;9.80;99.90;;;;;;5015253;28;20116;-35
2023/01/05 10:58:23;;;;;;;25.88;4.95;;;9.80;99.90;;;;;;5014607;28;20085;-34
2023/01/05 11:00:49;;;;;;;17.65;2.70;;;9.80;1.00;;;;;;5014335;28;20054;-35
2023/01/05 11:03:17;;;;;;;24.10;4.47;;;9.80;1.00;;;;;;5014269;28;20053;-34
2023/01/05 11:05:46;;;;;;;21.02;3.10;;;9.70;1.00;;;;;;5014238;28;20054;-34
2023/01/05 11:08:13;;;;;;;22.10;2.92;;;9.60;20.30;;;;;;4996715;28;20092;-34
2023/01/05 11:10:49;;;;;;;22.38;3.00;;;9.60;99.90;;;;;;5024459;28;20067;-36
2023/01/05 11:13:15;;;;;;;20.77;3.60;;;9.60;89.20;;;;;;5015136;28;20053;-34
2023/01/05 11:15:48;;;;;;;22.00;3.95;;;9.50;50.40;;;;;;5033766;28;20049;-34
2023/01/05 11:18:37;;;;;;;;;;;9.50;99.90;;;;;;5034699;28;20081;-33
2023/01/05 11:21:13;;;;;;;19.50;3.00;;;9.50;97.50;;;;;;5007007;28;20338;-35
2023/01/05 11:23:51;;;;;;;21.67;5.10;;;9.50;99.90;;;;;;5033606;28;20045;-33
2023/01/05 11:26:17;;;;;;;19.27;3.15;;;9.50;99.90;;;;;;5031202;28;20053;-34
2023/01/05 11:29:03;;;;;;;33.40;4.28;;;9.50;99.90;;;;;;5032497;28;20045;-34
2023/01/05 11:31:33;;;;;;;26.48;3.97;;;9.50;99.90;;;;;;5034440;28;20062;-34
2023/01/05 11:34:21;;;;;;;26.77;4.05;;;9.50;99.90;;;;;;5016259;28;20060;-33
2023/01/05 11:36:57;;;;;;;30.02;3.80;;;9.50;99.90;;;;;;5022694;28;20073;-35
2023/01/05 11:39:29;;;;;;;22.30;3.13;;;9.60;99.90;;;;;;5034337;28;20053;-34
2023/01/05 11:42:07;;;;;;;22.88;3.13;;;9.60;99.90;;;;;;5033664;28;20053;-34
2023/01/05 11:44:34;;;;;;;27.48;4.20;;;9.60;99.90;;;;;;5037675;28;20140;-36
2023/01/05 11:47:00;;;;;;;29.33;4.65;;;9.60;99.90;;;;;;5037567;28;20056;-34
2023/01/05 11:49:26;;;;;;;28.75;5.03;;;9.60;99.90;;;;;;5020277;28;20053;-34
2023/01/05 11:51:52;;;;;;;20.48;3.60;;;9.60;99.90;;;;;;5036908;28;20052;-34
2023/01/05 11:54:35;;;;;;;22.95;3.75;;;9.70;99.90;;;;;;5038288;28;20042;-34
2023/01/05 11:57:13;;;;;;;23.95;2.90;;;9.70;99.90;;;;;;5038030;28;20103;-33
2023/01/05 11:59:38;;;;;;;18.70;3.90;;;9.70;1.00;;;;;;5037897;28;20068;-33
2023/01/05 12:02:48;;;;;;;18.35;2.92;;;9.80;99.90;;;;;;5037278;28;20476;-34
2023/01/05 12:05:44;;;;;;;24.33;3.35;;;9.80;1.00;;;;;;4959044;28;20057;-34
2023/01/05 12:08:22;;;;;;;17.60;2.75;;;9.80;99.90;;;;;;5036617;28;20056;-34
2023/01/05 12:11:15;;;;;;;16.30;3.83;;;9.90;1.00;;;;;;5036007;28;20053;-34
2023/01/05 12:13:58;;;;;;;15.13;2.58;;;9.90;1.00;;;;;;5037827;28;20049;-34
2023/01/05 12:16:43;;;;;;;;;;;9.80;99.90;;;;;;5036464;28;20541;-34
2023/01/05 12:19:14;;;;;;;25.05;2.88;;;9.60;99.90;;;;;;5036686;28;20364;-35
2023/01/05 12:22:07;;;;;;;21.80;3.15;;;9.50;1.00;;;;;;5036945;28;20048;-34
2023/01/05 12:25:04;;;;;;;16.58;2.63;;;9.50;1.00;;;;;;5036637;28;20531;-34
2023/01/05 12:27:51;;;;;;;23.75;3.10;;;9.40;1.00;;;;;;5025283;28;20061;-34
2023/01/05 12:30:30;;;;;;;24.20;2.85;;;9.40;99.90;;;;;;5036816;28;20049;-34
2023/01/05 12:33:35;;;;;;;14.10;2.22;;;9.50;99.90;;;;;;5036852;28;20084;-35
2023/01/05 12:36:24;;;;;;;15.27;3.95;;;9.50;53.40;;;;;;5037040;28;20046;-33
2023/01/05 12:39:08;;;;;;;15.05;2.30;;;9.60;85.60;;;;;;5019301;28;20053;-34
2023/01/05 12:41:58;;;;;;;16.55;2.67;;;9.70;99.90;;;;;;5036583;28;20096;-34
2023/01/05 12:44:36;;;;;;;15.35;2.75;;;9.70;1.00;;;;;;5037411;28;20398;-34
2023/01/05 12:47:17;;;;;;;22.95;2.88;;;9.70;99.90;;;;;;5037359;28;20442;-33
2023/01/05 12:49:51;;;;;;;15.35;2.55;;;9.70;1.00;;;;;;5019845;28;20059;-34
2023/01/05 12:52:27;;;;;;;18.67;3.22;;;9.70;18.30;;;;;;5036455;28;20091;-33
2023/01/05 12:55:03;;;;;;;16.02;3.33;;;9.70;99.90;;;;;;5035694;28;20080;-34
2023/01/05 12:57:38;;;;;;;16.23;3.13;;;9.80;95.20;;;;;;5036186;28;20537;-35
2023/01/05 13:00:10;;;;;;;25.17;3.28;;;9.90;1.00;;;;;;5036305;28;20049;-34
2023/01/05 13:03:00;;;;;;;18.05;3.83;;;10.00;1.00;;;;;;5036563;28;20054;-34
2023/01/05 13:05:32;;;;;;;16.30;2.40;;;10.00;1.00;;;;;;5036200;28;20049;-34
2023/01/05 13:08:04;;;;;;;27.85;4.22;;;10.00;99.90;;;;;;5036168;28;20510;-33
2023/01/05 13:10:38;;;;;;;20.83;4.47;;;10.00;1.00;;;;;;5036110;28;20053;-34
2023/01/05 13:13:11;;;;;;;22.00;3.40;;;10.00;99.90;;;;;;5018595;28;20412;-34
2023/01/05 13:15:55;;;;;;;19.10;3.47;;;9.90;99.90;;;;;;5019431;28;20089;-33
2023/01/05 13:18:24;;;;;;;23.38;3.42;;;9.90;1.00;;;;;;5018650;28;20041;-34
2023/01/05 13:20:58;;;;;;;24.80;2.97;;;9.80;1.00;;;;;;5019261;28;20095;-36
2023/01/05 13:23:29;;;;;;;23.67;3.63;;;9.80;1.00;;;;;;5035798;28;20053;-34
2023/01/05 13:26:00;;;;;;;23.05;3.55;;;9.80;99.90;;;;;;5028251;28;20096;-34
2023/01/05 13:28:26;;;;;;;18.08;3.55;;;9.80;99.90;;;;;;5036686;28;20045;-36
2023/01/05 13:31:20;;;;;;;29.65;4.53;;;9.70;99.90;;;;;;5035417;28;20488;-34
2023/01/05 13:34:17;;;;;;;28.25;4.50;;;9.70;99.90;;;;;;5035099;28;20139;-34
2023/01/05 13:36:43;;;;;;;25.60;4.13;;;9.70;99.90;;;;;;5014793;28;20057;-34
2023/01/05 13:39:20;;;;;;;23.20;3.40;;;9.60;99.90;;;;;;5035477;28;20496;-34
2023/01/05 13:42:14;;;;;;;23.92;4.35;;;9.70;27.00;;;;;;5036352;28;20116;-33
2023/01/05 13:44:55;;;;;;;16.45;3.25;;;9.60;99.90;;;;;;5033975;28;20054;-33
2023/01/05 13:47:32;;;;;;;19.83;3.03;;;9.60;99.90;;;;;;5035463;28;20056;-33